createdAt,value
2022-12-14T00:01:28.115Z,43.30
2022-12-14T00:03:56.432Z,48.70
2022-12-14T00:06:30.312Z,48.55
2022-12-14T00:08:59.494Z,56.70
2022-12-14T00:11:26.723Z,53.63
2022-12-14T00:13:58.266Z,66.43
2022-12-14T00:16:27.187Z,48.22
2022-12-14T00:18:55.800Z,50.55
2022-12-14T00:21:23.153Z,47.30
2022-12-14T00:23:51.483Z,43.42
2022-12-14T00:26:24.150Z,43.85
2022-12-14T00:28:52.392Z,46.33
2022-12-14T00:31:19.992Z,53.03
2022-12-14T00:33:46.926Z,44.33
2022-12-14T00:36:13.975Z,37.05
2022-12-14T00:38:41.290Z,42.08
2022-12-14T00:41:09.206Z,55.95
2022-12-14T00:43:36.416Z,46.17
2022-12-14T00:46:04.946Z,39.85
2022-12-14T00:48:32.296Z,50.38
2022-12-14T00:50:59.736Z,34.92
2022-12-14T00:53:26.652Z,40.63
2022-12-14T00:55:53.366Z,45.10
2022-12-14T00:58:21.979Z,45.80
2022-12-14T01:00:58.048Z,41.38
2022-12-14T01:03:25.166Z,42.22
2022-12-14T01:05:52.183Z,43.53
2022-12-14T01:08:20.573Z,51.53
2022-12-14T01:10:47.436Z,53.38
2022-12-14T01:13:14.186Z,46.63
2022-12-14T01:15:40.967Z,42.53
2022-12-14T01:18:07.815Z,41.65
2022-12-14T01:20:34.563Z,36.83
2022-12-14T01:23:01.258Z,39.65
2022-12-14T01:25:28.151Z,42.40
2022-12-14T01:27:54.848Z,42.40
2022-12-14T01:30:21.704Z,42.75
2022-12-14T01:32:48.471Z,38.10
2022-12-14T01:35:15.338Z,44.03
2022-12-14T01:37:42.006Z,41.60
2022-12-14T01:40:09.349Z,35.78
2022-12-14T01:42:36.843Z,42.83
2022-12-14T01:45:05.556Z,40.80
2022-12-14T01:47:47.026Z,37.67
2022-12-14T01:50:34.094Z,46.22
2022-12-14T01:53:05.295Z,45.92
2022-12-14T01:55:33.462Z,34.80
2022-12-14T01:58:03.195Z,34.92
2022-12-14T02:00:30.387Z,43.40
2022-12-14T02:02:57.108Z,40.83
2022-12-14T02:05:25.370Z,42.15
2022-12-14T02:07:54.245Z,45.55
2022-12-14T02:10:23.575Z,42.03
2022-12-14T02:12:58.206Z,43.28
2022-12-14T02:15:25.216Z,53.05
2022-12-14T02:17:52.227Z,34.50
2022-12-14T02:20:21.589Z,43.50
2022-12-14T02:23:03.285Z,40.97
2022-12-14T02:25:45.202Z,42.60
2022-12-14T02:28:22.173Z,37.03
2022-12-14T02:31:04.788Z,43.65
2022-12-14T02:33:55.785Z,43.67
2022-12-14T02:36:42.987Z,44.63
2022-12-14T02:39:32.348Z,41.05
2022-12-14T02:42:10.110Z,40.67
2022-12-14T02:44:49.780Z,32.95
2022-12-14T02:47:23.837Z,33.85
2022-12-14T02:50:11.952Z,42.58
2022-12-14T02:53:14.971Z,39.25
2022-12-14T02:55:51.923Z,45.10
2022-12-14T02:58:27.161Z,43.35
2022-12-14T03:00:56.050Z,36.15
2022-12-14T03:03:23.667Z,34.63
2022-12-14T03:06:02.198Z,35.55
2022-12-14T03:08:34.135Z,32.97
2022-12-14T03:11:05.150Z,39.00
2022-12-14T03:13:56.779Z,32.63
2022-12-14T03:16:30.244Z,27.88
2022-12-14T03:19:23.179Z,38.58
2022-12-14T03:21:57.584Z,30.40
2022-12-14T03:24:30.827Z,31.13
2022-12-14T03:27:14.157Z,36.60
2022-12-14T03:29:47.962Z,32.72
2022-12-14T03:32:19.212Z,30.25
2022-12-14T03:34:54.043Z,45.13
2022-12-14T03:37:32.574Z,33.30
2022-12-14T03:39:59.359Z,36.13
2022-12-14T03:42:37.703Z,37.80
2022-12-14T03:45:26.591Z,30.80
2022-12-14T03:47:59.035Z,35.50
2022-12-14T03:50:38.802Z,31.30
2022-12-14T03:53:17.557Z,29.42
2022-12-14T03:56:02.680Z,31.48
2022-12-14T03:59:06.824Z,38.47
2022-12-14T04:01:41.064Z,38.03
2022-12-14T04:04:15.602Z,35.83
2022-12-14T04:07:09.059Z,38.03
2022-12-14T04:09:49.921Z,37.92
2022-12-14T04:12:46.530Z,35.45
2022-12-14T04:15:43.431Z,35.47
2022-12-14T04:18:36.031Z,40.03
2022-12-14T04:21:13.446Z,30.85
2022-12-14T04:24:04.653Z,31.30
2022-12-14T04:26:38.199Z,35.97
2022-12-14T04:29:29.619Z,29.33
2022-12-14T04:32:07.087Z,34.78
2022-12-14T04:34:37.442Z,37.55
2022-12-14T04:37:09.474Z,36.05
2022-12-14T04:39:43.343Z,36.30
2022-12-14T04:42:13.376Z,33.97
2022-12-14T04:44:49.068Z,37.17
2022-12-14T04:47:17.672Z,40.20
2022-12-14T04:49:57.669Z,34.60
2022-12-14T04:52:35.973Z,31.13
2022-12-14T04:55:18.566Z,34.55
2022-12-14T04:58:04.856Z,39.80
2022-12-14T05:00:34.937Z,35.10
2022-12-14T05:03:16.770Z,46.10
2022-12-14T05:06:16.144Z,32.95
2022-12-14T05:08:55.451Z,32.63
2022-12-14T05:11:53.653Z,31.25
2022-12-14T05:14:47.993Z,31.77
2022-12-14T05:17:15.870Z,33.78
2022-12-14T05:19:50.131Z,39.05
2022-12-14T05:22:18.175Z,40.80
2022-12-14T05:24:44.996Z,32.17
2022-12-14T05:27:11.865Z,36.88
2022-12-14T05:29:38.591Z,39.42
2022-12-14T05:32:05.365Z,33.90
2022-12-14T05:34:32.303Z,40.25
2022-12-14T05:36:58.988Z,33.15
2022-12-14T05:39:25.695Z,33.55
2022-12-14T05:41:53.351Z,29.73
2022-12-14T05:44:20.521Z,41.00
2022-12-14T05:46:47.272Z,33.88
2022-12-14T05:49:14.035Z,44.95
2022-12-14T05:51:40.842Z,33.28
2022-12-14T05:54:07.556Z,38.63
2022-12-14T05:56:34.290Z,31.00
2022-12-14T05:59:02.419Z,49.40
2022-12-14T06:01:29.180Z,29.13
2022-12-14T06:03:56.003Z,40.03
2022-12-14T06:06:22.803Z,35.50
2022-12-14T06:08:50.375Z,32.58
2022-12-14T06:11:24.145Z,36.05
2022-12-14T06:13:51.524Z,31.65
2022-12-14T06:16:24.354Z,31.85
2022-12-14T06:18:55.140Z,31.42
2022-12-14T06:21:29.976Z,32.28
2022-12-14T06:23:58.216Z,30.23
2022-12-14T06:26:26.329Z,39.28
2022-12-14T06:28:53.463Z,27.45
2022-12-14T06:31:22.776Z,36.78
2022-12-14T06:33:50.223Z,34.65
2022-12-14T06:36:18.823Z,27.40
2022-12-14T06:38:46.113Z,31.80
2022-12-14T06:41:12.862Z,35.90
2022-12-14T06:43:39.577Z,27.38
2022-12-14T06:46:15.153Z,32.05
2022-12-14T06:48:42.961Z,33.88
2022-12-14T06:51:09.828Z,37.70
2022-12-14T06:53:36.637Z,37.95
2022-12-14T06:56:14.677Z,35.45
2022-12-14T06:58:42.486Z,38.55
2022-12-14T07:01:20.994Z,32.67
2022-12-14T07:03:49.578Z,35.28
2022-12-14T07:06:16.939Z,36.88
2022-12-14T07:08:43.951Z,33.35
2022-12-14T07:11:12.924Z,37.38
2022-12-14T07:13:39.797Z,39.20
2022-12-14T07:16:08.029Z,32.15
2022-12-14T07:18:34.894Z,38.38
2022-12-14T07:21:09.995Z,37.97
2022-12-14T07:23:38.352Z,28.60
2022-12-14T07:26:08.100Z,32.70
2022-12-14T07:28:37.056Z,25.42
2022-12-14T07:31:05.039Z,29.08
2022-12-14T07:33:32.239Z,32.63
2022-12-14T07:36:04.114Z,30.27
2022-12-14T07:38:30.917Z,28.98
2022-12-14T07:41:06.079Z,28.55
2022-12-14T07:43:33.331Z,29.60
2022-12-14T07:46:01.946Z,31.85
2022-12-14T07:48:28.927Z,27.83
2022-12-14T07:51:00.862Z,29.67
2022-12-14T07:53:27.964Z,26.65
2022-12-14T07:55:54.895Z,27.35
2022-12-14T07:58:21.577Z,22.83
2022-12-14T08:00:48.316Z,28.30
2022-12-14T08:03:15.033Z,27.60
2022-12-14T08:05:41.730Z,26.98
2022-12-14T08:08:08.420Z,30.40
2022-12-14T08:10:40.122Z,28.85
2022-12-14T08:15:37.500Z,25.33
2022-12-14T08:18:04.269Z,22.25
2022-12-14T08:20:30.957Z,23.60
2022-12-14T08:22:57.641Z,26.65
2022-12-14T08:25:24.503Z,24.27
2022-12-14T08:27:51.241Z,23.80
2022-12-14T08:30:17.949Z,32.70
2022-12-14T08:32:44.652Z,25.75
2022-12-14T08:35:11.336Z,21.58
2022-12-14T08:37:41.655Z,25.52
2022-12-14T08:40:11.383Z,25.80
2022-12-14T08:42:38.094Z,31.55
2022-12-14T08:45:05.277Z,28.73
2022-12-14T08:47:32.025Z,28.60
2022-12-14T08:49:59.492Z,34.38
2022-12-14T08:52:26.227Z,28.52
2022-12-14T08:54:53.048Z,31.45
2022-12-14T08:57:19.853Z,26.48
2022-12-14T09:00:02.668Z,32.90
2022-12-14T09:02:30.028Z,30.15
2022-12-14T09:04:56.833Z,27.77
2022-12-14T09:07:23.543Z,25.42
2022-12-14T09:09:50.235Z,22.30
2022-12-14T09:12:16.937Z,25.20
2022-12-14T09:14:46.548Z,29.77
2022-12-14T09:17:19.612Z,27.20
2022-12-14T09:19:46.513Z,21.23
2022-12-14T09:22:14.061Z,33.08
2022-12-14T09:24:40.836Z,26.23
2022-12-14T09:27:08.808Z,27.52
2022-12-14T09:29:35.651Z,24.42
2022-12-14T09:32:02.470Z,26.30
2022-12-14T09:34:29.445Z,31.63
2022-12-14T09:36:56.120Z,21.77
2022-12-14T09:39:22.870Z,23.98
2022-12-14T09:42:17.283Z,30.50
2022-12-14T09:45:19.191Z,31.92
2022-12-14T09:48:02.206Z,18.73
2022-12-14T09:50:29.213Z,25.08
2022-12-14T09:53:01.636Z,27.73
2022-12-14T09:55:42.897Z,18.27
2022-12-14T09:58:14.935Z,23.60
2022-12-14T10:03:41.364Z,35.85
2022-12-14T10:06:37.595Z,26.25
2022-12-14T10:09:31.805Z,26.15
2022-12-14T10:12:14.607Z,30.30
2022-12-14T10:15:10.677Z,26.80
2022-12-14T10:18:01.377Z,31.13
2022-12-14T10:20:42.175Z,22.73
2022-12-14T10:23:21.106Z,28.38
2022-12-14T10:25:52.748Z,19.88
2022-12-14T10:28:36.139Z,19.98
2022-12-14T10:31:07.443Z,21.67
2022-12-14T10:33:34.134Z,17.48
2022-12-14T10:36:12.821Z,23.75
2022-12-14T10:38:49.297Z,22.75
2022-12-14T10:41:36.882Z,21.20
2022-12-14T10:44:12.776Z,17.08
2022-12-14T10:47:04.955Z,20.02
2022-12-14T10:49:55.311Z,15.98
2022-12-14T10:52:26.123Z,13.68
2022-12-14T10:54:55.680Z,22.73
2022-12-14T10:57:26.478Z,18.90
2022-12-14T11:00:07.848Z,16.27
2022-12-14T11:05:34.168Z,15.73
2022-12-14T11:08:04.497Z,16.25
2022-12-14T11:10:36.111Z,17.95
2022-12-14T11:13:18.776Z,15.75
2022-12-14T11:15:48.233Z,17.00
2022-12-14T11:18:15.533Z,16.65
2022-12-14T11:20:57.452Z,15.05
2022-12-14T11:23:27.024Z,13.10
2022-12-14T11:26:02.662Z,16.48
2022-12-14T11:28:49.889Z,16.88
2022-12-14T11:31:32.105Z,18.20
2022-12-14T11:34:00.096Z,12.85
2022-12-14T11:36:41.273Z,24.35
2022-12-14T11:39:14.111Z,17.35
2022-12-14T11:41:46.534Z,21.77
2022-12-14T11:44:16.384Z,20.52
2022-12-14T11:46:54.530Z,18.30
2022-12-14T11:49:36.228Z,15.65
2022-12-14T11:52:06.131Z,17.33
2022-12-14T11:54:34.649Z,19.42
2022-12-14T11:57:17.647Z,18.00
2022-12-14T11:59:52.348Z,17.33
2022-12-14T12:02:35.289Z,24.10
2022-12-14T12:05:12.215Z,19.70
2022-12-14T12:07:45.899Z,10.27
2022-12-14T12:10:12.627Z,13.25
2022-12-14T12:12:54.220Z,18.35
2022-12-14T12:15:29.201Z,13.40
2022-12-14T12:18:01.653Z,12.00
2022-12-14T12:20:39.190Z,13.18
2022-12-14T12:23:13.047Z,17.67
2022-12-14T12:25:41.699Z,12.55
2022-12-14T12:28:20.567Z,14.90
2022-12-14T12:30:51.774Z,33.42
2022-12-14T12:33:31.300Z,13.70
2022-12-14T12:36:02.793Z,20.63
2022-12-14T12:38:54.779Z,14.40
2022-12-14T12:41:33.412Z,17.63
2022-12-14T12:44:15.141Z,16.90
2022-12-14T12:47:15.256Z,16.88
2022-12-14T12:49:40.004Z,11.70
2022-12-14T12:52:20.557Z,14.73
2022-12-14T12:55:01.221Z,11.65
2022-12-14T12:57:33.589Z,11.88
2022-12-14T13:00:01.183Z,13.60
2022-12-14T13:02:33.843Z,13.50
2022-12-14T13:05:45.832Z,12.50
2022-12-14T13:08:14.233Z,12.18
2022-12-14T13:11:02.443Z,11.80
2022-12-14T13:13:34.222Z,16.20
2022-12-14T13:16:27.764Z,11.32
2022-12-14T13:19:32.451Z,14.38
2022-12-14T13:21:51.697Z,9.60
2022-12-14T13:24:21.089Z,14.02
2022-12-14T13:26:58.589Z,11.45
2022-12-14T13:29:42.816Z,14.48
2022-12-14T13:32:37.398Z,11.68
2022-12-14T13:35:18.626Z,12.63
2022-12-14T13:37:52.943Z,12.20
2022-12-14T13:40:22.738Z,11.07
2022-12-14T13:43:16.146Z,9.98
2022-12-14T13:45:46.326Z,21.83
2022-12-14T13:48:16.526Z,22.10
2022-12-14T13:50:52.863Z,21.40
2022-12-14T13:53:50.289Z,18.83
2022-12-14T13:56:30.847Z,14.90
2022-12-14T14:01:46.062Z,21.35
2022-12-14T14:04:16.035Z,14.27
2022-12-14T14:06:44.542Z,12.40
2022-12-14T14:09:26.766Z,13.70
2022-12-14T14:12:25.429Z,13.05
2022-12-14T14:15:02.155Z,12.73
2022-12-14T14:17:37.362Z,9.23
2022-12-14T14:20:36.262Z,12.82
2022-12-14T14:23:18.030Z,14.05
2022-12-14T14:26:10.155Z,20.15
2022-12-14T14:28:38.081Z,11.07
2022-12-14T14:31:05.350Z,12.88
2022-12-14T14:33:49.191Z,15.02
2022-12-14T14:36:33.488Z,22.17
2022-12-14T14:39:02.264Z,21.23
2022-12-14T14:41:36.092Z,18.90
2022-12-14T14:44:18.415Z,12.52
2022-12-14T14:49:37.250Z,18.05
2022-12-14T14:52:44.313Z,17.33
2022-12-14T14:58:37.649Z,16.08
2022-12-14T15:01:25.190Z,14.10
2022-12-14T15:04:04.179Z,17.10
2022-12-14T15:06:37.898Z,13.73
2022-12-14T15:09:41.602Z,14.57
2022-12-14T15:12:28.874Z,13.85
2022-12-14T15:15:02.141Z,12.00
2022-12-14T15:17:29.255Z,17.30
2022-12-14T15:20:01.200Z,25.15
2022-12-14T15:22:40.001Z,20.38
2022-12-14T15:25:13.702Z,19.33
2022-12-14T15:27:41.623Z,17.02
2022-12-14T15:30:11.587Z,15.77
2022-12-14T15:32:48.036Z,21.33
2022-12-14T15:35:20.810Z,19.27
2022-12-14T15:37:58.001Z,21.33
2022-12-14T15:40:27.990Z,20.75
2022-12-14T15:42:57.218Z,18.10
2022-12-14T15:45:34.315Z,27.58
2022-12-14T15:48:20.191Z,22.98
2022-12-14T15:50:52.008Z,18.40
2022-12-14T15:53:29.086Z,23.38
2022-12-14T15:56:01.943Z,23.77
2022-12-14T15:58:39.042Z,20.67
2022-12-14T16:01:16.766Z,26.00
2022-12-14T16:03:50.277Z,23.80
2022-12-14T16:06:17.595Z,31.10
2022-12-14T16:09:05.173Z,27.77
2022-12-14T16:11:40.414Z,36.13
2022-12-14T16:14:24.869Z,23.95
2022-12-14T16:16:52.344Z,28.70
2022-12-14T16:19:27.722Z,27.00
2022-12-14T16:22:20.994Z,33.75
2022-12-14T16:27:27.746Z,23.98
2022-12-14T16:30:16.382Z,30.70
2022-12-14T16:32:44.862Z,31.67
2022-12-14T16:35:19.893Z,27.17
2022-12-14T16:37:58.286Z,27.10
2022-12-14T16:40:33.744Z,30.02
2022-12-14T16:43:01.223Z,33.30
2022-12-14T16:45:33.914Z,36.03
2022-12-14T16:48:14.251Z,32.95
2022-12-14T16:50:56.352Z,36.25
2022-12-14T16:53:27.538Z,44.60
2022-12-14T16:56:03.778Z,52.38
2022-12-14T16:58:30.908Z,47.65
2022-12-14T17:01:06.025Z,35.20
2022-12-14T17:03:33.900Z,32.47
2022-12-14T17:06:06.305Z,32.55
2022-12-14T17:08:36.137Z,34.47
2022-12-14T17:11:03.233Z,45.30
2022-12-14T17:13:33.205Z,27.60
2022-12-14T17:16:06.970Z,30.65
2022-12-14T17:18:38.009Z,31.50
2022-12-14T17:21:06.822Z,23.63
2022-12-14T17:23:36.736Z,25.15
2022-12-14T17:26:03.849Z,25.48
2022-12-14T17:28:34.569Z,37.90
2022-12-14T17:31:02.288Z,33.38
2022-12-14T17:33:31.257Z,20.75
2022-12-14T17:35:58.187Z,36.83
2022-12-14T17:38:24.910Z,36.33
2022-12-14T17:40:53.679Z,45.17
2022-12-14T17:43:25.496Z,36.58
2022-12-14T17:45:52.861Z,31.80
2022-12-14T17:48:20.188Z,36.45
2022-12-14T17:50:49.799Z,29.40
2022-12-14T17:53:22.132Z,30.88
2022-12-14T17:55:48.862Z,30.42
2022-12-14T17:58:16.703Z,30.75
2022-12-14T18:01:03.351Z,28.50
2022-12-14T18:03:33.141Z,29.00
2022-12-14T18:06:00.471Z,32.28
2022-12-14T18:08:27.381Z,34.35
2022-12-14T18:10:57.482Z,48.42
2022-12-14T18:13:24.243Z,45.17
2022-12-14T18:15:53.003Z,38.08
2022-12-14T18:18:23.975Z,41.50
2022-12-14T18:21:00.347Z,37.20
2022-12-14T18:23:28.928Z,43.00
2022-12-14T18:25:58.428Z,41.33
2022-12-14T18:28:25.549Z,51.85
2022-12-14T18:30:59.093Z,46.22
2022-12-14T18:33:27.822Z,46.20
2022-12-14T18:35:56.455Z,38.75
2022-12-14T18:38:24.203Z,48.65
2022-12-14T18:40:53.229Z,42.03
2022-12-14T18:43:28.291Z,42.20
2022-12-14T18:45:56.044Z,35.97
2022-12-14T18:48:23.991Z,65.20
2022-12-14T18:50:51.674Z,61.92
2022-12-14T18:53:20.520Z,64.18
2022-12-14T18:55:48.272Z,57.28
2022-12-14T18:58:28.127Z,57.22
2022-12-14T19:00:58.291Z,64.45
2022-12-14T19:03:25.980Z,68.47
2022-12-14T19:06:26.733Z,63.08
2022-12-14T19:08:49.851Z,48.33
2022-12-14T19:11:37.620Z,47.00
2022-12-14T19:14:04.503Z,48.08
2022-12-14T19:16:31.576Z,32.45
2022-12-14T19:18:59.558Z,39.63
2022-12-14T19:21:26.626Z,41.42
2022-12-14T19:23:53.380Z,56.65
2022-12-14T19:26:21.063Z,49.97
2022-12-14T19:28:47.837Z,43.58
2022-12-14T19:31:14.598Z,57.92
2022-12-14T19:33:41.448Z,54.60
2022-12-14T19:36:09.227Z,51.25
2022-12-14T19:38:37.504Z,56.00
2022-12-14T19:41:07.679Z,44.38
2022-12-14T19:43:35.444Z,42.45
2022-12-14T19:46:07.483Z,37.63
2022-12-14T19:48:34.583Z,36.13
2022-12-14T19:51:10.421Z,31.67
2022-12-14T19:53:37.945Z,36.47
2022-12-14T19:56:05.186Z,38.33
2022-12-14T19:58:32.039Z,42.47
2022-12-14T20:00:59.012Z,28.48
2022-12-14T20:03:26.030Z,32.83
2022-12-14T20:05:58.713Z,43.60
2022-12-14T20:08:27.783Z,31.13
2022-12-14T20:10:55.303Z,32.53
2022-12-14T20:13:24.186Z,26.05
2022-12-14T20:15:53.488Z,38.47
2022-12-14T20:18:21.296Z,29.63
2022-12-14T20:20:49.744Z,33.58
2022-12-14T20:23:21.459Z,32.45
2022-12-14T20:25:48.998Z,30.20
2022-12-14T20:28:15.761Z,37.45
2022-12-14T20:30:47.751Z,38.75
2022-12-14T20:33:14.588Z,45.88
2022-12-14T20:35:41.393Z,38.38
2022-12-14T20:38:08.455Z,40.50
2022-12-14T20:40:39.114Z,30.25
2022-12-14T20:43:07.024Z,28.58
2022-12-14T20:45:42.334Z,30.65
2022-12-14T20:48:09.212Z,39.70
2022-12-14T20:50:40.600Z,39.10
2022-12-14T20:53:07.902Z,38.17
2022-12-14T20:55:35.778Z,40.92
2022-12-14T20:58:02.671Z,37.45
2022-12-14T21:00:29.572Z,28.95
2022-12-14T21:02:56.547Z,27.75
2022-12-14T21:05:23.464Z,31.80
2022-12-14T21:07:50.298Z,31.42
2022-12-14T21:10:17.076Z,35.70
2022-12-14T21:12:45.824Z,38.63
2022-12-14T21:15:12.556Z,32.50
2022-12-14T21:17:39.442Z,32.17
2022-12-14T21:20:06.512Z,35.17
2022-12-14T21:22:35.237Z,39.88
2022-12-14T21:25:04.246Z,39.83
2022-12-14T21:27:33.056Z,40.67
2022-12-14T21:30:00.402Z,50.30
2022-12-14T21:32:27.794Z,45.28
2022-12-14T21:34:54.596Z,39.83
2022-12-14T21:37:21.946Z,44.40
2022-12-14T21:39:54.090Z,45.40
2022-12-14T21:42:25.417Z,53.20
2022-12-14T21:44:53.436Z,44.35
2022-12-14T21:47:28.429Z,48.60
2022-12-14T21:49:56.198Z,43.67
2022-12-14T21:52:26.356Z,46.58
2022-12-14T21:54:53.072Z,48.88
2022-12-14T21:57:42.336Z,51.38
2022-12-14T22:00:11.005Z,60.58
2022-12-14T22:02:41.654Z,44.47
2022-12-14T22:05:09.446Z,48.92
2022-12-14T22:07:36.125Z,49.92
2022-12-14T22:10:03.023Z,44.15
2022-12-14T22:12:29.938Z,39.75
2022-12-14T22:14:56.674Z,49.55
2022-12-14T22:17:23.576Z,29.98
2022-12-14T22:19:51.173Z,36.00
2022-12-14T22:22:18.108Z,36.15
2022-12-14T22:24:48.449Z,39.85
2022-12-14T22:27:15.237Z,30.42
2022-12-14T22:29:41.940Z,39.88
2022-12-14T22:32:13.585Z,42.83
2022-12-14T22:34:40.491Z,46.75
2022-12-14T22:37:07.201Z,34.80
2022-12-14T22:39:34.044Z,39.65
2022-12-14T22:42:06.095Z,40.42
2022-12-14T22:46:59.466Z,26.73
2022-12-14T22:49:26.160Z,42.13
2022-12-14T22:51:52.947Z,34.47
2022-12-14T22:54:25.731Z,33.83
2022-12-14T22:56:55.462Z,33.17
2022-12-14T22:59:30.266Z,41.70
2022-12-14T23:01:58.244Z,32.28
2022-12-14T23:04:25.338Z,33.67
2022-12-14T23:06:52.931Z,36.67
2022-12-14T23:09:38.336Z,37.40
2022-12-14T23:12:24.461Z,41.92
2022-12-14T23:15:09.758Z,47.75
2022-12-14T23:17:55.274Z,45.83
2022-12-14T23:20:40.715Z,37.70
2022-12-14T23:23:27.905Z,45.85
2022-12-14T23:26:13.682Z,40.72
2022-12-14T23:28:59.860Z,38.95
2022-12-14T23:31:45.387Z,47.10
2022-12-14T23:34:30.903Z,40.38
2022-12-14T23:37:20.087Z,46.08
2022-12-14T23:40:06.756Z,48.80
2022-12-14T23:42:52.228Z,37.70
2022-12-14T23:45:37.813Z,49.45
2022-12-14T23:48:23.457Z,36.42
2022-12-14T23:51:09.006Z,40.15
2022-12-14T23:53:54.455Z,40.80
2022-12-14T23:56:39.906Z,48.35
2022-12-14T23:59:31.604Z,59.38
